Bellingham International Airport Bellingham US
ICAO: KBLI
IATA: BLI
Category: Medium
Scheduled Services: Yes

Elevation: 170 ft
TransAlt. 18000 ft.

Airport Communications:
VICTORIA APP/DEP:132.7
ATIS:134.45
CTAF:124.9
GND:127.4
SEATTLE RDO:122.15
TWR:124.9
UNICOM:122.95

KBLI Zoom In..

Runways:

(A) RW 16 length 6701 ft width 150 ft
ILS 108.50 / hdg 160

(B) RW 34 length 6701 ft width 150 ft
---- / hdg 340

Location; KBLI
Day. 15 / Time. 22.53 Zulu
* Altimeter: 29.98
* Temperature: 28° c. 82.4°f.
* Wind from: VRB° Speed 05 kn.
Dewpoint: 10° c.
Visibility: 10 Statute Miles.
Clouds: Clear (automated report).

KBLI 152253Z VRB05KT 10SM CLR 28/10 A2998 RMK AO2 SLP158 T02830100


Wind From VRB°
Speed 05 kn.

 
 
jpsmedia.com for Web Design worldairports.se 2018   terms of use